sensor_id;sensor_type;location;lat;lon;timestamp;pressure;altitude;pressure_sealevel;temperature;humidity
44297;BME280;51842;47.450;8.654;2023-03-12T00:01:34;95119.88;;;1.73;100.00
44297;BME280;51842;47.450;8.654;2023-03-12T00:04:09;95121.47;;;1.74;100.00
44297;BME280;51842;47.450;8.654;2023-03-12T00:06:36;95123.84;;;1.75;100.00
44297;BME280;51842;47.450;8.654;2023-03-12T00:09:08;95125.69;;;1.75;100.00
44297;BME280;51842;47.450;8.654;2023-03-12T00:11:34;95133.00;;;1.73;100.00
44297;BME280;51842;47.450;8.654;2023-03-12T00:14:00;95123.94;;;1.69;100.00
44297;BME280;51842;47.450;8.654;2023-03-12T00:16:27;95131.63;;;1.70;100.00
44297;BME280;51842;47.450;8.654;2023-03-12T00:18:55;95127.97;;;1.71;100.00
44297;BME280;51842;47.450;8.654;2023-03-12T00:21:22;95131.63;;;1.70;100.00
44297;BME280;51842;47.450;8.654;2023-03-12T00:23:54;95137.44;;;1.72;100.00
44297;BME280;51842;47.450;8.654;2023-03-12T00:26:21;95141.88;;;1.72;100.00
44297;BME280;51842;47.450;8.654;2023-03-12T00:28:59;95136.44;;;1.73;100.00
44297;BME280;51842;47.450;8.654;2023-03-12T00:31:32;95139.25;;;1.72;100.00
44297;BME280;51842;47.450;8.654;2023-03-12T00:34:00;95133.81;;;1.73;100.00
44297;BME280;51842;47.450;8.654;2023-03-12T00:36:33;95146.13;;;1.73;100.00
44297;BME280;51842;47.450;8.654;2023-03-12T00:39:00;95144.31;;;1.73;100.00
44297;BME280;51842;47.450;8.654;2023-03-12T00:41:33;95141.69;;;1.73;100.00
44297;BME280;51842;47.450;8.654;2023-03-12T00:44:02;95142.47;;;1.74;100.00
44297;BME280;51842;47.450;8.654;2023-03-12T00:46:31;95147.13;;;1.72;100.00
44297;BME280;51842;47.450;8.654;2023-03-12T00:48:56;95148.53;;;1.74;100.00
44297;BME280;51842;47.450;8.654;2023-03-12T00:51:35;95149.91;;;1.77;100.00
44297;BME280;51842;47.450;8.654;2023-03-12T00:54:03;95140.44;;;1.76;100.00
44297;BME280;51842;47.450;8.654;2023-03-12T00:56:32;95144.66;;;1.77;100.00
44297;BME280;51842;47.450;8.654;2023-03-12T00:59:07;95147.06;;;1.78;100.00
44297;BME280;51842;47.450;8.654;2023-03-12T01:01:32;95137.16;;;1.80;100.00
44297;BME280;51842;47.450;8.654;2023-03-12T01:04:01;95146.84;;;1.80;100.00
44297;BME280;51842;47.450;8.654;2023-03-12T01:06:27;95141.81;;;1.78;100.00
44297;BME280;51842;47.450;8.654;2023-03-12T01:08:56;95147.44;;;1.82;100.00
44297;BME280;51842;47.450;8.654;2023-03-12T01:11:22;95147.06;;;1.78;100.00
44297;BME280;51842;47.450;8.654;2023-03-12T01:13:49;95143.50;;;1.73;100.00
44297;BME280;51842;47.450;8.654;2023-03-12T01:16:20;95146.25;;;1.78;100.00
44297;BME280;51842;47.450;8.654;2023-03-12T01:18:49;95145.03;;;1.80;100.00
44297;BME280;51842;47.450;8.654;2023-03-12T01:21:15;95149.63;;;1.85;100.00
44297;BME280;51842;47.450;8.654;2023-03-12T01:23:41;95147.44;;;1.82;100.00
44297;BME280;51842;47.450;8.654;2023-03-12T01:26:07;95160.19;;;1.78;100.00
44297;BME280;51842;47.450;8.654;2023-03-12T01:28:35;95154.72;;;1.80;100.00
44297;BME280;51842;47.450;8.654;2023-03-12T01:31:15;95156.31;;;1.81;100.00
44297;BME280;51842;47.450;8.654;2023-03-12T01:33:47;95150.28;;;1.80;100.00
44297;BME280;51842;47.450;8.654;2023-03-12T01:36:31;95156.31;;;1.81;100.00
44297;BME280;51842;47.450;8.654;2023-03-12T01:38:58;95156.56;;;1.79;100.00
44297;BME280;51842;47.450;8.654;2023-03-12T01:41:33;95158.16;;;1.80;100.00
44297;BME280;51842;47.450;8.654;2023-03-12T01:44:12;95159.19;;;1.79;100.00
44297;BME280;51842;47.450;8.654;2023-03-12T01:46:42;95165.44;;;1.78;100.00
44297;BME280;51842;47.450;8.654;2023-03-12T01:49:32;95163.19;;;1.82;100.00
44297;BME280;51842;47.450;8.654;2023-03-12T01:52:24;95143.44;;;1.79;100.00
44297;BME280;51842;47.450;8.654;2023-03-12T01:57:49;95148.31;;;1.76;100.00
44297;BME280;51842;47.450;8.654;2023-03-12T02:00:26;95147.50;;;1.75;100.00
44297;BME280;51842;47.450;8.654;2023-03-12T02:02:59;95149.63;;;1.67;100.00
44297;BME280;51842;47.450;8.654;2023-03-12T02:05:45;95155.69;;;1.67;100.00
44297;BME280;51842;47.450;8.654;2023-03-12T02:08:16;95154.81;;;1.73;100.00
44297;BME280;51842;47.450;8.654;2023-03-12T02:10:48;95151.75;;;1.76;100.00
44297;BME280;51842;47.450;8.654;2023-03-12T02:13:26;95151.16;;;1.74;100.00
44297;BME280;51842;47.450;8.654;2023-03-12T02:15:55;95151.94;;;1.75;100.00
44297;BME280;51842;47.450;8.654;2023-03-12T02:18:21;95150.34;;;1.74;100.00
44297;BME280;51842;47.450;8.654;2023-03-12T02:21:19;95148.38;;;1.69;100.00
44297;BME280;51842;47.450;8.654;2023-03-12T02:24:04;95155.69;;;1.67;100.00
44297;BME280;51842;47.450;8.654;2023-03-12T02:26:36;95153.63;;;1.69;100.00
44297;BME280;51842;47.450;8.654;2023-03-12T02:29:04;95156.84;;;1.71;100.00
44297;BME280;51842;47.450;8.654;2023-03-12T02:31:43;95161.88;;;1.73;100.00
44297;BME280;51842;47.450;8.654;2023-03-12T02:34:14;95162.44;;;1.75;100.00
44297;BME280;51842;47.450;8.654;2023-03-12T02:36:40;95155.38;;;1.75;100.00
44297;BME280;51842;47.450;8.654;2023-03-12T02:39:06;95160.41;;;1.77;100.00
44297;BME280;51842;47.450;8.654;2023-03-12T02:41:56;95163.84;;;1.77;100.00
44297;BME280;51842;47.450;8.654;2023-03-12T02:44:30;95162.81;;;1.78;100.00
44297;BME280;51842;47.450;8.654;2023-03-12T02:47:04;95167.84;;;1.80;100.00
44297;BME280;51842;47.450;8.654;2023-03-12T02:49:34;95162.38;;;1.81;100.00
44297;BME280;51842;47.450;8.654;2023-03-12T02:52:01;95152.69;;;1.82;100.00
44297;BME280;51842;47.450;8.654;2023-03-12T02:54:30;95161.81;;;1.79;100.00
44297;BME280;51842;47.450;8.654;2023-03-12T02:56:57;95161.00;;;1.79;100.00
44297;BME280;51842;47.450;8.654;2023-03-12T02:59:23;95164.44;;;1.79;100.00
44297;BME280;51842;47.450;8.654;2023-03-12T03:01:58;95167.63;;;1.81;100.00
44297;BME280;51842;47.450;8.654;2023-03-12T03:04:26;95170.06;;;1.83;100.00
44297;BME280;51842;47.450;8.654;2023-03-12T03:06:56;95174.88;;;1.86;100.00
44297;BME280;51842;47.450;8.654;2023-03-12T03:09:27;95170.22;;;1.88;100.00
44297;BME280;51842;47.450;8.654;2023-03-12T03:11:53;95166.97;;;1.86;100.00
44297;BME280;51842;47.450;8.654;2023-03-12T03:14:19;95157.94;;;1.82;100.00
44297;BME280;51842;47.450;8.654;2023-03-12T03:16:45;95152.47;;;1.83;100.00
44297;BME280;51842;47.450;8.654;2023-03-12T03:19:13;95143.78;;;1.83;100.00
44297;BME280;51842;47.450;8.654;2023-03-12T03:21:39;95139.34;;;1.83;100.00
44297;BME280;51842;47.450;8.654;2023-03-12T03:24:14;95158.38;;;1.79;100.00
44297;BME280;51842;47.450;8.654;2023-03-12T03:26:43;95170.66;;;1.85;100.00
44297;BME280;51842;47.450;8.654;2023-03-12T03:29:09;95166.19;;;1.85;100.00
44297;BME280;51842;47.450;8.654;2023-03-12T03:31:35;95171.44;;;1.85;100.00
44297;BME280;51842;47.450;8.654;2023-03-12T03:34:03;95172.59;;;1.90;100.00
44297;BME280;51842;47.450;8.654;2023-03-12T03:36:38;95165.94;;;1.87;100.00
44297;BME280;51842;47.450;8.654;2023-03-12T03:39:04;95169.97;;;1.90;100.00
44297;BME280;51842;47.450;8.654;2023-03-12T03:41:34;95168.94;;;1.91;100.00
44297;BME280;51842;47.450;8.654;2023-03-12T03:43:59;95170.78;;;1.90;100.00
44297;BME280;51842;47.450;8.654;2023-03-12T03:46:30;95162.09;;;1.90;100.00
44297;BME280;51842;47.450;8.654;2023-03-12T03:48:58;95163.75;;;1.84;100.00
44297;BME280;51842;47.450;8.654;2023-03-12T03:51:30;95153.69;;;1.81;100.00
44297;BME280;51842;47.450;8.654;2023-03-12T03:53:58;95145.38;;;1.84;100.00
44297;BME280;51842;47.450;8.654;2023-03-12T03:56:28;95135.66;;;1.84;100.00
44297;BME280;51842;47.450;8.654;2023-03-12T03:58:54;95133.28;;;1.83;100.00
44297;BME280;51842;47.450;8.654;2023-03-12T04:01:22;95126.00;;;1.85;100.00
44297;BME280;51842;47.450;8.654;2023-03-12T04:03:48;95133.28;;;1.83;100.00
44297;BME280;51842;47.450;8.654;2023-03-12T04:06:14;95131.09;;;1.80;100.00
44297;BME280;51842;47.450;8.654;2023-03-12T04:08:49;95112.91;;;1.78;100.00
44297;BME280;51842;47.450;8.654;2023-03-12T04:11:20;95109.41;;;1.84;100.00
44297;BME280;51842;47.450;8.654;2023-03-12T04:13:49;95111.69;;;1.81;100.00
44297;BME280;51842;47.450;8.654;2023-03-12T04:16:17;95128.63;;;1.85;100.00
44297;BME280;51842;47.450;8.654;2023-03-12T04:18:44;95137.94;;;1.81;100.00
44297;BME280;51842;47.450;8.654;2023-03-12T04:21:16;95149.41;;;1.87;100.00
44297;BME280;51842;47.450;8.654;2023-03-12T04:23:42;95145.19;;;1.85;100.00
44297;BME280;51842;47.450;8.654;2023-03-12T04:26:08;95145.28;;;1.91;100.00
44297;BME280;51842;47.450;8.654;2023-03-12T04:28:36;95152.97;;;1.92;100.00
44297;BME280;51842;47.450;8.654;2023-03-12T04:31:07;95151.94;;;1.93;100.00
44297;BME280;51842;47.450;8.654;2023-03-12T04:33:41;95153.34;;;1.96;100.00
44297;BME280;51842;47.450;8.654;2023-03-12T04:36:07;95159.97;;;1.98;100.00
44297;BME280;51842;47.450;8.654;2023-03-12T04:38:36;95158.16;;;1.99;100.00
44297;BME280;51842;47.450;8.654;2023-03-12T04:41:11;95163.16;;;2.00;100.00
44297;BME280;51842;47.450;8.654;2023-03-12T04:43:39;95156.66;;;2.03;100.00
44297;BME280;51842;47.450;8.654;2023-03-12T04:46:06;95153.41;;;2.07;100.00
44297;BME280;51842;47.450;8.654;2023-03-12T04:48:34;95141.66;;;2.10;100.00
44297;BME280;51842;47.450;8.654;2023-03-12T04:51:12;95140.81;;;2.09;100.00
44297;BME280;51842;47.450;8.654;2023-03-12T04:53:41;95130.53;;;2.08;100.00
44297;BME280;51842;47.450;8.654;2023-03-12T04:56:07;95132.13;;;2.09;100.00
44297;BME280;51842;47.450;8.654;2023-03-12T04:58:34;95131.56;;;2.07;100.00
44297;BME280;51842;47.450;8.654;2023-03-12T05:01:00;95135.94;;;2.13;100.00
44297;BME280;51842;47.450;8.654;2023-03-12T05:03:30;95132.84;;;2.16;100.00
44297;BME280;51842;47.450;8.654;2023-03-12T05:05:59;95129.78;;;2.19;100.00
44297;BME280;51842;47.450;8.654;2023-03-12T05:08:24;95122.47;;;2.21;100.00
44297;BME280;51842;47.450;8.654;2023-03-12T05:10:50;95129.13;;;2.24;100.00
44297;BME280;51842;47.450;8.654;2023-03-12T05:13:25;95128.88;;;2.25;100.00
44297;BME280;51842;47.450;8.654;2023-03-12T05:15:51;95123.41;;;2.27;100.00
44297;BME280;51842;47.450;8.654;2023-03-12T05:18:20;95124.81;;;2.29;100.00
44297;BME280;51842;47.450;8.654;2023-03-12T05:20:46;95122.19;;;2.29;100.00
44297;BME280;51842;47.450;8.654;2023-03-12T05:23:21;95118.88;;;2.34;100.00
44297;BME280;51842;47.450;8.654;2023-03-12T05:25:47;95123.66;;;2.37;100.00
44297;BME280;51842;47.450;8.654;2023-03-12T05:28:13;95126.88;;;2.39;100.00
44297;BME280;51842;47.450;8.654;2023-03-12T05:30:45;95130.44;;;2.45;100.00
44297;BME280;51842;47.450;8.654;2023-03-12T05:33:11;95130.81;;;2.48;100.00
44297;BME280;51842;47.450;8.654;2023-03-12T05:35:37;95143.16;;;2.48;100.00
44297;BME280;51842;47.450;8.654;2023-03-12T05:38:03;95145.34;;;2.51;100.00
44297;BME280;51842;47.450;8.654;2023-03-12T05:40:30;95145.34;;;2.51;100.00
44297;BME280;51842;47.450;8.654;2023-03-12T05:43:01;95158.47;;;2.51;100.00
44297;BME280;51842;47.450;8.654;2023-03-12T05:45:26;95159.72;;;2.48;100.00
44297;BME280;51842;47.450;8.654;2023-03-12T05:47:59;95160.06;;;2.52;100.00
44297;BME280;51842;47.450;8.654;2023-03-12T05:50:26;95154.97;;;2.57;100.00
44297;BME280;51842;47.450;8.654;2023-03-12T05:53:00;95157.59;;;2.57;100.00
44297;BME280;51842;47.450;8.654;2023-03-12T05:55:26;95158.94;;;2.60;100.00
44297;BME280;51842;47.450;8.654;2023-03-12T05:57:52;95165.59;;;2.62;100.00
44297;BME280;51842;47.450;8.654;2023-03-12T06:00:19;95170.03;;;2.62;100.00
44297;BME280;51842;47.450;8.654;2023-03-12T06:02:54;95172.69;;;2.62;100.00
44297;BME280;51842;47.450;8.654;2023-03-12T06:05:20;95173.38;;;2.57;100.00
44297;BME280;51842;47.450;8.654;2023-03-12T06:07:46;95158.94;;;2.60;100.00
44297;BME280;51842;47.450;8.654;2023-03-12T06:10:15;95163.53;;;2.64;100.00
44297;BME280;51842;47.450;8.654;2023-03-12T06:12:41;95155.19;;;2.67;100.00
44297;BME280;51842;47.450;8.654;2023-03-12T06:15:12;95157.03;;;2.67;100.00
44297;BME280;51842;47.450;8.654;2023-03-12T06:17:38;95156.34;;;2.71;100.00
44297;BME280;51842;47.450;8.654;2023-03-12T06:20:05;95156.69;;;2.75;100.00
44297;BME280;51842;47.450;8.654;2023-03-12T06:22:35;95153.72;;;2.71;100.00
44297;BME280;51842;47.450;8.654;2023-03-12T06:25:01;95161.94;;;2.75;100.00
44297;BME280;51842;47.450;8.654;2023-03-12T06:27:26;95164.59;;;2.75;100.00
44297;BME280;51842;47.450;8.654;2023-03-12T06:29:52;95170.88;;;2.74;100.00
44297;BME280;51842;47.450;8.654;2023-03-12T06:32:22;95169.06;;;2.74;100.00
44297;BME280;51842;47.450;8.654;2023-03-12T06:34:47;95162.88;;;2.81;100.00
44297;BME280;51842;47.450;8.654;2023-03-12T06:37:14;95160.72;;;2.77;100.00
44297;BME280;51842;47.450;8.654;2023-03-12T06:39:40;95179.47;;;2.81;100.00
44297;BME280;51842;47.450;8.654;2023-03-12T06:42:06;95174.00;;;2.83;100.00
44297;BME280;51842;47.450;8.654;2023-03-12T06:44:35;95187.03;;;2.89;100.00
44297;BME280;51842;47.450;8.654;2023-03-12T06:47:01;95181.09;;;2.94;100.00
44297;BME280;51842;47.450;8.654;2023-03-12T06:49:30;95188.88;;;3.00;100.00
44297;BME280;51842;47.450;8.654;2023-03-12T06:52:00;95180.09;;;3.07;100.00
44297;BME280;51842;47.450;8.654;2023-03-12T06:54:26;95182.25;;;3.10;100.00
44297;BME280;51842;47.450;8.654;2023-03-12T06:57:04;95202.31;;;3.11;100.00
44297;BME280;51842;47.450;8.654;2023-03-12T06:59:50;95204.47;;;3.14;100.00
44297;BME280;51842;47.450;8.654;2023-03-12T07:02:16;95199.44;;;3.12;100.00
44297;BME280;51842;47.450;8.654;2023-03-12T07:04:42;95201.72;;;3.09;100.00
44297;BME280;51842;47.450;8.654;2023-03-12T07:07:09;95209.50;;;3.15;100.00
44297;BME280;51842;47.450;8.654;2023-03-12T07:09:36;95208.13;;;3.13;100.00
44297;BME280;51842;47.450;8.654;2023-03-12T07:12:02;95213.88;;;3.21;100.00
44297;BME280;51842;47.450;8.654;2023-03-12T07:14:28;95227.72;;;3.29;100.00
44297;BME280;51842;47.450;8.654;2023-03-12T07:16:54;95228.88;;;3.33;100.00
44297;BME280;51842;47.450;8.654;2023-03-12T07:19:21;95234.94;;;3.33;100.00
44297;BME280;51842;47.450;8.654;2023-03-12T07:21:47;95237.13;;;3.36;100.00
44297;BME280;51842;47.450;8.654;2023-03-12T07:24:15;95241.50;;;3.42;100.00
44297;BME280;51842;47.450;8.654;2023-03-12T07:26:44;95245.84;;;3.48;100.00
44297;BME280;51842;47.450;8.654;2023-03-12T07:29:10;95248.13;;;3.57;100.00
44297;BME280;51842;47.450;8.654;2023-03-12T07:31:36;95252.72;;;3.61;100.00
44297;BME280;51842;47.450;8.654;2023-03-12T07:34:02;95254.91;;;3.64;100.00
44297;BME280;51842;47.450;8.654;2023-03-12T07:36:33;95256.94;;;3.62;100.00
44297;BME280;51842;47.450;8.654;2023-03-12T07:38:59;95261.53;;;3.67;100.00
44297;BME280;51842;47.450;8.654;2023-03-12T07:41:25;95260.84;;;3.60;100.00
44297;BME280;51842;47.450;8.654;2023-03-12T07:43:53;95259.00;;;3.60;100.00
44297;BME280;51842;47.450;8.654;2023-03-12T07:46:28;95264.19;;;3.67;100.00
44297;BME280;51842;47.450;8.654;2023-03-12T07:48:59;95259.59;;;3.74;100.00
44297;BME280;51842;47.450;8.654;2023-03-12T07:51:34;95263.50;;;3.83;100.00
44297;BME280;51842;47.450;8.654;2023-03-12T07:54:07;95265.66;;;3.86;100.00
44297;BME280;51842;47.450;8.654;2023-03-12T07:56:35;95256.72;;;3.87;100.00
44297;BME280;51842;47.450;8.654;2023-03-12T07:59:04;95276.53;;;3.90;100.00
44297;BME280;51842;47.450;8.654;2023-03-12T08:01:30;95272.66;;;3.92;100.00
44297;BME280;51842;47.450;8.654;2023-03-12T08:04:01;95269.31;;;3.97;100.00
44297;BME280;51842;47.450;8.654;2023-03-12T08:06:28;95278.25;;;3.96;100.00
44297;BME280;51842;47.450;8.654;2023-03-12T08:08:57;95275.50;;;4.03;100.00
44297;BME280;51842;47.450;8.654;2023-03-12T08:11:22;95275.84;;;4.06;100.00
44297;BME280;51842;47.450;8.654;2023-03-12T08:13:48;95281.47;;;3.98;100.00
44297;BME280;51842;47.450;8.654;2023-03-12T08:16:14;95282.81;;;4.01;100.00
44297;BME280;51842;47.450;8.654;2023-03-12T08:18:40;95283.06;;;4.11;100.00
44297;BME280;51842;47.450;8.654;2023-03-12T08:21:07;95283.97;;;4.16;100.00
44297;BME280;51842;47.450;8.654;2023-03-12T08:23:34;95286.72;;;4.22;100.00
44297;BME280;51842;47.450;8.654;2023-03-12T08:26:06;95290.47;;;4.26;100.00
44297;BME280;51842;47.450;8.654;2023-03-12T08:28:38;95290.59;;;4.31;100.00
44297;BME280;51842;47.450;8.654;2023-03-12T08:31:04;95288.28;;;4.34;100.00
44297;BME280;51842;47.450;8.654;2023-03-12T08:33:30;95291.84;;;4.40;100.00
44297;BME280;51842;47.450;8.654;2023-03-12T08:35:56;95295.94;;;4.48;100.00
44297;BME280;51842;47.450;8.654;2023-03-12T08:38:23;95300.88;;;4.56;100.00
44297;BME280;51842;47.450;8.654;2023-03-12T08:41:02;95294.41;;;4.63;100.00
44297;BME280;51842;47.450;8.654;2023-03-12T08:43:43;95292.94;;;4.68;100.00
44297;BME280;51842;47.450;8.654;2023-03-12T08:46:09;95291.28;;;4.78;100.00
44297;BME280;51842;47.450;8.654;2023-03-12T08:48:38;95290.44;;;4.90;100.00
44297;BME280;51842;47.450;8.654;2023-03-12T08:51:05;95292.22;;;5.01;100.00
44297;BME280;51842;47.450;8.654;2023-03-12T08:53:35;95293.31;;;4.88;100.00
44297;BME280;51842;47.450;8.654;2023-03-12T08:56:04;95292.47;;;4.99;100.00
44297;BME280;51842;47.450;8.654;2023-03-12T08:58:31;95298.19;;;5.08;100.00
44297;BME280;51842;47.450;8.654;2023-03-12T09:00:59;95306.50;;;5.17;100.00
44297;BME280;51842;47.450;8.654;2023-03-12T09:03:31;95291.31;;;5.24;100.00
44297;BME280;51842;47.450;8.654;2023-03-12T09:06:24;95298.03;;;5.31;100.00
44297;BME280;51842;47.450;8.654;2023-03-12T09:08:49;95297.09;;;5.38;100.00
44297;BME280;51842;47.450;8.654;2023-03-12T09:11:17;95307.28;;;5.46;100.00
44297;BME280;51842;47.450;8.654;2023-03-12T09:13:46;95300.47;;;5.50;100.00
44297;BME280;51842;47.450;8.654;2023-03-12T09:16:17;95301.69;;;5.59;100.00
44297;BME280;51842;47.450;8.654;2023-03-12T09:18:46;95308.19;;;5.68;100.00
44297;BME280;51842;47.450;8.654;2023-03-12T09:21:12;95301.69;;;5.76;100.00
44297;BME280;51842;47.450;8.654;2023-03-12T09:23:38;95309.41;;;5.94;100.00
44297;BME280;51842;47.450;8.654;2023-03-12T09:26:09;95313.22;;;6.03;100.00
44297;BME280;51842;47.450;8.654;2023-03-12T09:28:38;95313.44;;;6.19;100.00
44297;BME280;51842;47.450;8.654;2023-03-12T09:31:05;95314.34;;;6.24;100.00
44297;BME280;51842;47.450;8.654;2023-03-12T09:33:32;95324.25;;;6.34;100.00
44297;BME280;51842;47.450;8.654;2023-03-12T09:36:02;95316.69;;;6.43;100.00
44297;BME280;51842;47.450;8.654;2023-03-12T09:38:29;95313.69;;;6.56;100.00
44297;BME280;51842;47.450;8.654;2023-03-12T09:40:57;95314.41;;;6.73;100.00
44297;BME280;51842;47.450;8.654;2023-03-12T09:43:40;95314.88;;;6.87;100.00
44297;BME280;51842;47.450;8.654;2023-03-12T09:46:28;95308.38;;;7.00;100.00
44297;BME280;51842;47.450;8.654;2023-03-12T09:49:05;95317.72;;;7.08;100.00
44297;BME280;51842;47.450;8.654;2023-03-12T09:51:50;95319.94;;;7.16;100.00
44297;BME280;51842;47.450;8.654;2023-03-12T09:57:29;95327.47;;;7.24;100.00
44297;BME280;51842;47.450;8.654;2023-03-12T09:59:56;95329.09;;;7.30;100.00
44297;BME280;51842;47.450;8.654;2023-03-12T10:06:12;95341.19;;;7.48;100.00
44297;BME280;51842;47.450;8.654;2023-03-12T10:12:39;95345.47;;;7.49;100.00
44297;BME280;51842;47.450;8.654;2023-03-12T10:27:42;95346.72;;;7.74;100.00
44297;BME280;51842;47.450;8.654;2023-03-12T10:30:23;95343.63;;;7.82;100.00
44297;BME280;51842;47.450;8.654;2023-03-12T10:33:01;95346.06;;;7.88;100.00
44297;BME280;51842;47.450;8.654;2023-03-12T10:35:29;95345.56;;;7.92;100.00
44297;BME280;51842;47.450;8.654;2023-03-12T10:38:03;95342.41;;;7.95;100.00
44297;BME280;51842;47.450;8.654;2023-03-12T10:40:35;95340.00;;;7.93;100.00
44297;BME280;51842;47.450;8.654;2023-03-12T10:43:06;95341.66;;;7.99;100.00
44297;BME280;51842;47.450;8.654;2023-03-12T10:48:40;95347.47;;;7.96;100.00
44297;BME280;51842;47.450;8.654;2023-03-12T10:51:12;95358.06;;;7.96;100.00
44297;BME280;51842;47.450;8.654;2023-03-12T10:53:42;95351.91;;;7.91;100.00
44297;BME280;51842;47.450;8.654;2023-03-12T10:56:17;95359.31;;;7.88;100.00
44297;BME280;51842;47.450;8.654;2023-03-12T10:58:52;95370.47;;;7.91;100.00
44297;BME280;51842;47.450;8.654;2023-03-12T11:01:27;95370.78;;;7.94;100.00
44297;BME280;51842;47.450;8.654;2023-03-12T11:04:30;95384.13;;;8.04;100.00
44297;BME280;51842;47.450;8.654;2023-03-12T11:07:15;95394.28;;;7.85;100.00
44297;BME280;51842;47.450;8.654;2023-03-12T11:10:25;95420.16;;;7.73;100.00
44297;BME280;51842;47.450;8.654;2023-03-12T11:15:42;95425.56;;;7.56;100.00
44297;BME280;51842;47.450;8.654;2023-03-12T11:18:34;95428.88;;;7.69;100.00
44297;BME280;51842;47.450;8.654;2023-03-12T11:23:42;95429.41;;;7.98;100.00
44297;BME280;51842;47.450;8.654;2023-03-12T11:26:19;95430.00;;;8.05;100.00
44297;BME280;51842;47.450;8.654;2023-03-12T11:32:23;95431.44;;;8.45;100.00
44297;BME280;51842;47.450;8.654;2023-03-12T11:34:51;95426.47;;;8.58;100.00
44297;BME280;51842;47.450;8.654;2023-03-12T11:37:27;95428.00;;;8.92;100.00
44297;BME280;51842;47.450;8.654;2023-03-12T11:43:54;95425.88;;;9.52;100.00
44297;BME280;51842;47.450;8.654;2023-03-12T11:53:52;95411.66;;;10.55;94.06
44297;BME280;51842;47.450;8.654;2023-03-12T11:56:55;95423.13;;;10.50;91.61
44297;BME280;51842;47.450;8.654;2023-03-12T12:09:13;95412.69;;;10.03;94.35
44297;BME280;51842;47.450;8.654;2023-03-12T12:15:03;95411.84;;;9.77;95.37
44297;BME280;51842;47.450;8.654;2023-03-12T12:18:33;95414.75;;;9.70;97.38
44297;BME280;51842;47.450;8.654;2023-03-12T12:27:37;95402.16;;;9.30;97.75
44297;BME280;51842;47.450;8.654;2023-03-12T12:36:10;95388.47;;;9.94;95.99
44297;BME280;51842;47.450;8.654;2023-03-12T12:38:48;95394.38;;;10.32;94.48
44297;BME280;51842;47.450;8.654;2023-03-12T12:41:24;95395.13;;;10.53;89.08
44297;BME280;51842;47.450;8.654;2023-03-12T12:44:20;95384.50;;;10.58;88.10
44297;BME280;51842;47.450;8.654;2023-03-12T12:46:59;95380.72;;;10.84;85.81
44297;BME280;51842;47.450;8.654;2023-03-12T12:49:49;95374.03;;;10.97;86.05
44297;BME280;51842;47.450;8.654;2023-03-12T12:52:21;95369.69;;;11.17;84.94
44297;BME280;51842;47.450;8.654;2023-03-12T12:55:16;95382.59;;;11.49;84.34
44297;BME280;51842;47.450;8.654;2023-03-12T13:01:05;95377.25;;;11.44;79.20
44297;BME280;51842;47.450;8.654;2023-03-12T13:03:37;95383.66;;;11.48;76.21
44297;BME280;51842;47.450;8.654;2023-03-12T13:06:06;95388.00;;;11.83;76.42
44297;BME280;51842;47.450;8.654;2023-03-12T13:14:13;95390.06;;;11.96;78.53
44297;BME280;51842;47.450;8.654;2023-03-12T13:16:46;95380.78;;;11.89;76.33
44297;BME280;51842;47.450;8.654;2023-03-12T13:31:37;95377.97;;;11.10;69.20
44297;BME280;51842;47.450;8.654;2023-03-12T13:36:50;95371.91;;;10.94;69.96
44297;BME280;51842;47.450;8.654;2023-03-12T13:42:38;95366.69;;;11.28;75.31
44297;BME280;51842;47.450;8.654;2023-03-12T13:46:20;95363.72;;;11.35;74.93
44297;BME280;51842;47.450;8.654;2023-03-12T13:48:48;95371.53;;;11.16;74.76
44297;BME280;51842;47.450;8.654;2023-03-12T13:51:20;95361.91;;;11.25;76.62
44297;BME280;51842;47.450;8.654;2023-03-12T13:53:58;95374.41;;;11.25;76.61
44297;BME280;51842;47.450;8.654;2023-03-12T13:56:33;95381.88;;;11.33;77.85
44297;BME280;51842;47.450;8.654;2023-03-12T13:59:05;95380.00;;;11.33;78.65
44297;BME280;51842;47.450;8.654;2023-03-12T14:01:47;95388.63;;;11.10;78.23
44297;BME280;51842;47.450;8.654;2023-03-12T14:04:37;95388.13;;;10.93;75.76
44297;BME280;51842;47.450;8.654;2023-03-12T14:14:16;95380.19;;;10.82;77.19
44297;BME280;51842;47.450;8.654;2023-03-12T14:16:51;95379.94;;;10.74;77.92
44297;BME280;51842;47.450;8.654;2023-03-12T14:19:28;95383.41;;;10.59;76.31
44297;BME280;51842;47.450;8.654;2023-03-12T14:22:05;95374.13;;;10.51;76.80
44297;BME280;51842;47.450;8.654;2023-03-12T14:24:40;95382.09;;;10.46;77.64
44297;BME280;51842;47.450;8.654;2023-03-12T14:27:19;95376.78;;;10.46;79.07
44297;BME280;51842;47.450;8.654;2023-03-12T14:32:45;95377.03;;;10.60;77.94
44297;BME280;51842;47.450;8.654;2023-03-12T14:35:32;95364.75;;;10.59;77.13
44297;BME280;51842;47.450;8.654;2023-03-12T14:38:14;95359.19;;;10.65;77.01
44297;BME280;51842;47.450;8.654;2023-03-12T14:41:02;95357.59;;;10.54;78.13
44297;BME280;51842;47.450;8.654;2023-03-12T14:43:34;95366.66;;;10.48;78.65
44297;BME280;51842;47.450;8.654;2023-03-12T14:46:16;95364.25;;;10.57;78.43
44297;BME280;51842;47.450;8.654;2023-03-12T14:48:46;95354.13;;;10.69;77.98
44297;BME280;51842;47.450;8.654;2023-03-12T14:51:29;95349.50;;;11.00;77.27
44297;BME280;51842;47.450;8.654;2023-03-12T14:54:02;95342.09;;;11.37;75.20
44297;BME280;51842;47.450;8.654;2023-03-12T14:56:33;95348.63;;;11.65;75.46
44297;BME280;51842;47.450;8.654;2023-03-12T14:59:28;95333.59;;;11.79;72.53
44297;BME280;51842;47.450;8.654;2023-03-12T15:02:09;95326.94;;;11.76;73.92
44297;BME280;51842;47.450;8.654;2023-03-12T15:04:37;95335.34;;;11.99;72.50
44297;BME280;51842;47.450;8.654;2023-03-12T15:07:10;95326.75;;;12.36;71.21
44297;BME280;51842;47.450;8.654;2023-03-12T15:09:42;95330.16;;;12.66;69.90
44297;BME280;51842;47.450;8.654;2023-03-12T15:12:25;95329.88;;;12.72;69.77
44297;BME280;51842;47.450;8.654;2023-03-12T15:17:50;95332.47;;;12.78;67.76
44297;BME280;51842;47.450;8.654;2023-03-12T15:20:18;95345.31;;;13.00;68.29